createdAt,value
2024-03-16T00:00:08.774Z,17.83
2024-03-16T00:02:36.928Z,20.50
2024-03-16T00:05:05.186Z,19.23
2024-03-16T00:07:33.381Z,18.87
2024-03-16T00:10:01.669Z,17.77
2024-03-16T00:12:30.045Z,19.60
2024-03-16T00:14:58.171Z,21.50
2024-03-16T00:17:26.660Z,20.10
2024-03-16T00:19:54.737Z,20.40
2024-03-16T00:22:23.026Z,22.43
2024-03-16T00:24:51.338Z,20.67
2024-03-16T00:27:19.825Z,20.27
2024-03-16T00:29:47.907Z,23.53
2024-03-16T00:32:16.485Z,21.47
2024-03-16T00:34:44.597Z,22.10
2024-03-16T00:37:12.730Z,24.50
2024-03-16T00:39:41.182Z,21.33
2024-03-16T00:42:11.055Z,22.23
2024-03-16T00:44:39.160Z,21.20
2024-03-16T00:47:07.407Z,21.00
2024-03-16T00:49:36.003Z,23.03
2024-03-16T00:52:04.181Z,21.37
2024-03-16T00:54:32.790Z,24.63
2024-03-16T00:57:00.934Z,21.60
2024-03-16T00:59:30.066Z,23.20
2024-03-16T01:01:58.659Z,20.20
2024-03-16T01:04:26.778Z,18.93
2024-03-16T01:06:55.075Z,22.57
2024-03-16T01:09:23.504Z,22.20
2024-03-16T01:11:51.680Z,20.77
2024-03-16T01:14:20.063Z,22.33
2024-03-16T01:16:48.217Z,22.10
2024-03-16T01:19:16.864Z,21.10
2024-03-16T01:21:45.088Z,21.70
2024-03-16T01:24:13.303Z,21.23
2024-03-16T01:26:41.347Z,20.47
2024-03-16T01:29:15.054Z,21.30
2024-03-16T01:31:43.120Z,19.87
2024-03-16T01:34:11.494Z,22.00
2024-03-16T01:36:40.033Z,23.57
2024-03-16T01:39:12.503Z,21.10
2024-03-16T01:41:41.434Z,20.80
2024-03-16T01:44:11.598Z,20.70
2024-03-16T01:46:41.042Z,25.63
2024-03-16T01:49:10.207Z,21.93
2024-03-16T01:51:38.455Z,21.10
2024-03-16T01:54:06.778Z,21.63
2024-03-16T01:56:35.345Z,21.93
2024-03-16T01:59:03.531Z,17.50
2024-03-16T02:01:32.407Z,19.70
2024-03-16T02:04:00.727Z,18.53
2024-03-16T02:06:30.142Z,18.70
2024-03-16T02:09:01.501Z,18.30
2024-03-16T02:11:29.672Z,17.90
2024-03-16T02:13:57.994Z,19.20
2024-03-16T02:16:26.084Z,18.73
2024-03-16T02:18:54.668Z,17.60
2024-03-16T02:21:23.039Z,20.83
2024-03-16T02:23:51.169Z,20.47
2024-03-16T02:26:19.282Z,22.70
2024-03-16T02:28:47.357Z,20.83
2024-03-16T02:31:15.586Z,20.90
2024-03-16T02:33:43.788Z,22.60
2024-03-16T02:36:12.824Z,20.83
2024-03-16T02:38:41.728Z,20.17
2024-03-16T02:41:09.924Z,22.13
2024-03-16T02:43:38.017Z,25.30
2024-03-16T02:46:24.812Z,21.87
2024-03-16T02:48:52.947Z,23.37
2024-03-16T02:51:21.066Z,23.53
2024-03-16T02:53:49.234Z,21.87
2024-03-16T02:56:17.302Z,22.50
2024-03-16T02:58:45.749Z,22.03
2024-03-16T03:01:14.501Z,21.60
2024-03-16T03:03:42.706Z,22.20
2024-03-16T03:06:10.844Z,23.57
2024-03-16T03:08:39.960Z,24.50
2024-03-16T03:11:09.959Z,26.97
2024-03-16T03:13:38.164Z,23.17
2024-03-16T03:16:06.681Z,28.63
2024-03-16T03:18:35.353Z,30.00
2024-03-16T03:21:03.479Z,33.87
2024-03-16T03:23:31.626Z,33.43
2024-03-16T03:25:59.861Z,25.80
2024-03-16T03:28:27.961Z,24.23
2024-03-16T03:30:56.055Z,21.63
2024-03-16T03:33:24.150Z,26.53
2024-03-16T03:35:52.250Z,24.43
2024-03-16T03:38:20.328Z,21.93
2024-03-16T03:40:48.430Z,28.17
2024-03-16T03:43:20.860Z,28.20
2024-03-16T03:45:55.227Z,31.43
2024-03-16T03:48:42.693Z,31.27
2024-03-16T03:51:11.156Z,30.53
2024-03-16T03:53:39.199Z,32.13
2024-03-16T03:56:07.468Z,29.83
2024-03-16T03:58:35.526Z,24.03
2024-03-16T04:01:03.723Z,28.90
2024-03-16T04:03:31.930Z,27.63
2024-03-16T04:06:00.046Z,25.33
2024-03-16T04:08:28.094Z,25.13
2024-03-16T04:10:56.253Z,23.47
2024-03-16T04:13:24.332Z,21.87
2024-03-16T04:15:52.503Z,24.57
2024-03-16T04:18:20.623Z,22.63
2024-03-16T04:20:48.678Z,22.63
2024-03-16T04:23:16.811Z,21.37
2024-03-16T04:25:44.887Z,26.13
2024-03-16T04:28:13.899Z,21.87
2024-03-16T04:30:42.111Z,21.07
2024-03-16T04:33:10.266Z,19.40
2024-03-16T04:35:38.442Z,18.97
2024-03-16T04:38:06.608Z,19.63
2024-03-16T04:40:34.708Z,17.50
2024-03-16T04:43:02.956Z,17.93
2024-03-16T04:45:31.164Z,22.00
2024-03-16T04:47:59.346Z,20.10
2024-03-16T04:50:27.759Z,20.37
2024-03-16T04:52:56.132Z,18.77
2024-03-16T04:55:24.344Z,18.23
2024-03-16T04:57:52.425Z,22.23
2024-03-16T05:00:20.616Z,21.47
2024-03-16T05:02:49.628Z,24.53
2024-03-16T05:05:17.758Z,21.17
2024-03-16T05:07:45.893Z,28.33
2024-03-16T05:10:14.106Z,36.67
2024-03-16T05:12:42.267Z,33.27
2024-03-16T05:15:10.905Z,28.57
2024-03-16T05:17:40.685Z,30.33
2024-03-16T05:20:10.623Z,19.53
2024-03-16T05:22:39.575Z,20.73
2024-03-16T05:25:08.176Z,22.17
2024-03-16T05:27:36.721Z,21.70
2024-03-16T05:30:08.438Z,28.87
2024-03-16T05:32:36.956Z,21.60
2024-03-16T05:35:07.940Z,22.23
2024-03-16T05:37:36.142Z,24.23
2024-03-16T05:40:04.825Z,19.57
2024-03-16T05:42:35.903Z,20.40
2024-03-16T05:45:04.771Z,17.40
2024-03-16T05:47:32.986Z,16.60
2024-03-16T05:50:01.148Z,18.37
2024-03-16T05:52:29.331Z,16.57
2024-03-16T05:54:57.597Z,17.30
2024-03-16T05:57:27.343Z,15.17
2024-03-16T05:59:55.490Z,15.63
2024-03-16T06:02:24.345Z,15.63
2024-03-16T06:04:53.156Z,15.03
2024-03-16T06:07:21.863Z,17.87
2024-03-16T06:09:50.077Z,14.63
2024-03-16T06:12:18.288Z,14.47
2024-03-16T06:14:47.055Z,14.50
2024-03-16T06:17:15.728Z,16.17
2024-03-16T06:19:45.063Z,17.13
2024-03-16T06:22:13.295Z,16.27
2024-03-16T06:24:43.966Z,14.77
2024-03-16T06:27:16.181Z,16.53
2024-03-16T06:29:49.010Z,16.53
2024-03-16T06:32:21.509Z,18.67
2024-03-16T06:34:49.895Z,17.97
2024-03-16T06:37:18.665Z,19.50
2024-03-16T06:39:47.334Z,18.97
2024-03-16T06:42:15.454Z,17.40
2024-03-16T06:44:43.607Z,16.87
2024-03-16T06:47:11.669Z,19.40
2024-03-16T06:49:39.809Z,19.73
2024-03-16T06:52:09.549Z,19.40
2024-03-16T06:54:37.723Z,18.23
2024-03-16T06:57:06.144Z,17.37
2024-03-16T06:59:34.271Z,20.43
2024-03-16T07:02:02.397Z,16.80
2024-03-16T07:04:31.232Z,17.60
2024-03-16T07:06:59.335Z,17.03
2024-03-16T07:09:27.490Z,16.27
2024-03-16T07:11:56.353Z,16.13
2024-03-16T07:14:24.461Z,19.10
2024-03-16T07:16:53.050Z,16.38
2024-03-16T07:19:24.434Z,17.02
2024-03-16T07:21:52.841Z,17.70
2024-03-16T07:24:21.005Z,16.90
2024-03-16T07:26:49.488Z,16.88
2024-03-16T07:29:17.615Z,16.73
2024-03-16T07:31:46.400Z,16.27
2024-03-16T07:34:14.583Z,18.35
2024-03-16T07:36:42.787Z,16.67
2024-03-16T07:39:12.414Z,16.17
2024-03-16T07:41:40.741Z,17.13
2024-03-16T07:44:08.952Z,16.35
2024-03-16T07:46:37.039Z,16.50
2024-03-16T07:49:09.461Z,17.95
2024-03-16T07:51:38.273Z,25.60
2024-03-16T07:54:10.250Z,23.05
2024-03-16T07:56:38.493Z,17.95
2024-03-16T07:59:07.235Z,17.98
2024-03-16T08:01:36.570Z,18.15
2024-03-16T08:04:04.881Z,17.58
2024-03-16T08:06:33.390Z,17.50
2024-03-16T08:09:01.543Z,18.67
2024-03-16T08:11:31.450Z,17.02
2024-03-16T08:13:59.586Z,17.80
2024-03-16T08:16:28.132Z,16.73
2024-03-16T08:18:56.546Z,18.10
2024-03-16T08:21:24.953Z,15.65
2024-03-16T08:23:53.110Z,15.60
2024-03-16T08:26:21.243Z,15.57
2024-03-16T08:28:49.407Z,14.65
2024-03-16T08:31:17.579Z,19.10
2024-03-16T08:33:45.766Z,14.23
2024-03-16T08:36:17.280Z,13.13
2024-03-16T08:38:45.557Z,17.27
2024-03-16T08:41:13.727Z,14.05
2024-03-16T08:43:42.183Z,14.40
2024-03-16T08:46:11.464Z,13.25
2024-03-16T08:48:40.963Z,12.85
2024-03-16T08:51:09.156Z,13.38
2024-03-16T08:53:37.414Z,14.07
2024-03-16T08:56:08.225Z,13.38
2024-03-16T08:58:36.686Z,13.32
2024-03-16T09:01:05.143Z,13.23
2024-03-16T09:03:33.346Z,15.75
2024-03-16T09:06:02.675Z,17.77
2024-03-16T09:08:32.491Z,15.32
2024-03-16T09:11:01.001Z,15.40
2024-03-16T09:13:30.868Z,16.10
2024-03-16T09:15:59.180Z,13.85
2024-03-16T09:18:28.791Z,19.55
2024-03-16T09:20:56.866Z,15.43
2024-03-16T09:23:25.267Z,15.55
2024-03-16T09:25:56.660Z,14.23
2024-03-16T09:28:24.902Z,21.17
2024-03-16T09:30:56.692Z,15.43
2024-03-16T09:33:25.558Z,12.75
2024-03-16T09:35:54.871Z,11.68
2024-03-16T09:38:24.485Z,14.60
2024-03-16T09:40:57.089Z,9.40
